Time;durP1;ratioP1;P1;durP2;ratioP2;P2;SDS_P1;SDS_P2;PMS_P1;PMS_P2;Temp;Humidity;BMP_temperature;BMP_pressure;BME280_temperature;BME280_humidity;BME280_pressure;Samples;Min_cycle;Max_cycle;Signal;HPM_P1;HPM_P2
2023/12/02 00:01:51;;;;;;;35.70;14.75;;;-0.20;99.90;;;;;;4907486;29;20451;-66
2023/12/02 00:04:16;;;;;;;32.42;15.48;;;-0.20;99.90;;;;;;4877881;29;20045;-66
2023/12/02 00:06:42;;;;;;;31.33;14.23;;;-0.30;99.90;;;;;;4913391;29;20047;-67
2023/12/02 00:09:08;;;;;;;34.88;14.45;;;-0.20;99.90;;;;;;4914174;29;20147;-66
2023/12/02 00:11:34;;;;;;;33.90;14.00;;;-0.30;99.90;;;;;;4900675;29;20050;-66
2023/12/02 00:13:59;;;;;;;29.33;13.90;;;-0.20;99.90;;;;;;4913680;29;20032;-66
2023/12/02 00:16:25;;;;;;;34.72;14.45;;;-0.20;99.90;;;;;;4913895;29;20059;-66
2023/12/02 00:18:50;;;;;;;35.35;14.90;;;-0.30;99.90;;;;;;4911106;29;20047;-66
2023/12/02 00:21:16;;;;;;;32.40;14.13;;;-0.20;99.90;;;;;;4910115;29;20546;-66
2023/12/02 00:23:42;;;;;;;31.17;13.80;;;-0.20;99.90;;;;;;4913306;29;20051;-66
2023/12/02 00:26:08;;;;;;;33.35;14.68;;;-0.30;99.90;;;;;;4913747;29;20051;-66
2023/12/02 00:28:34;;;;;;;32.10;14.05;;;-0.20;99.90;;;;;;4894290;29;20715;-66
2023/12/02 00:30:59;;;;;;;33.67;14.98;;;-0.20;99.90;;;;;;4901103;29;20051;-66
2023/12/02 00:33:25;;;;;;;32.67;14.57;;;-0.20;99.90;;;;;;4912973;29;20052;-66
2023/12/02 00:35:50;;;;;;;34.75;14.70;;;-0.20;99.90;;;;;;4910031;29;20079;-66
2023/12/02 00:38:16;;;;;;;37.65;15.73;;;-0.20;99.90;;;;;;4900971;29;20048;-65
2023/12/02 00:40:42;;;;;;;33.42;14.82;;;-0.20;99.90;;;;;;4912897;29;20075;-66
2023/12/02 00:43:07;;;;;;;38.35;15.98;;;-0.20;99.90;;;;;;4913232;29;20122;-66
2023/12/02 00:45:33;;;;;;;33.47;14.23;;;-0.20;99.90;;;;;;4896159;29;20044;-66
2023/12/02 00:47:58;;;;;;;37.05;15.63;;;-0.10;99.90;;;;;;4913482;29;20040;-66
2023/12/02 00:50:24;;;;;;;33.33;14.95;;;-0.20;99.90;;;;;;4913670;29;20040;-66
2023/12/02 00:52:49;;;;;;;34.17;15.25;;;-0.20;99.90;;;;;;4910431;29;20077;-66
2023/12/02 00:55:15;;;;;;;35.72;14.80;;;-0.20;99.90;;;;;;4911762;29;20043;-66
2023/12/02 00:57:41;;;;;;;39.53;15.82;;;-0.20;99.90;;;;;;4912818;29;20040;-66
2023/12/02 01:00:08;;;;;;;34.67;15.20;;;-0.20;99.90;;;;;;4913620;29;20058;-65
2023/12/02 01:02:33;;;;;;;34.67;15.63;;;-0.20;99.90;;;;;;4898806;29;20673;-67
2023/12/02 01:04:59;;;;;;;36.78;15.73;;;-0.20;99.90;;;;;;4912966;29;20043;-66
2023/12/02 01:07:24;;;;;;;37.00;15.90;;;-0.20;99.90;;;;;;4913005;29;20056;-66
2023/12/02 01:09:50;;;;;;;34.15;14.93;;;-0.20;99.90;;;;;;4909709;29;20507;-65
2023/12/02 01:12:16;;;;;;;34.95;15.73;;;-0.20;99.90;;;;;;4903138;29;20052;-65
2023/12/02 01:14:41;;;;;;;40.65;16.17;;;-0.30;99.90;;;;;;4912783;29;20547;-65
2023/12/02 01:17:07;;;;;;;34.53;15.68;;;-0.30;99.90;;;;;;4913297;29;20240;-66
2023/12/02 01:19:32;;;;;;;38.25;16.17;;;-0.40;99.90;;;;;;4909293;29;20100;-66
2023/12/02 01:21:58;;;;;;;38.10;16.35;;;-0.50;99.90;;;;;;4904707;29;20063;-64
2023/12/02 01:24:23;;;;;;;38.28;16.48;;;-0.50;99.90;;;;;;4912081;29;20522;-65
2023/12/02 01:26:49;;;;;;;35.53;16.30;;;-0.60;99.90;;;;;;4899086;29;20136;-64
2023/12/02 01:29:14;;;;;;;36.80;15.85;;;-0.60;99.90;;;;;;4912032;29;20050;-66
2023/12/02 01:31:40;;;;;;;40.05;17.27;;;-0.60;99.90;;;;;;4912223;29;20047;-65
2023/12/02 01:34:05;;;;;;;34.45;15.45;;;-0.70;99.90;;;;;;4901094;29;21400;-65
2023/12/02 01:36:31;;;;;;;38.80;16.27;;;-0.70;99.90;;;;;;4911775;29;20051;-64
2023/12/02 01:38:56;;;;;;;38.40;15.75;;;-0.70;99.90;;;;;;4902760;29;20076;-64
2023/12/02 01:41:23;;;;;;;43.88;17.70;;;-0.70;99.90;;;;;;4912987;29;20054;-66
2023/12/02 01:43:49;;;;;;;41.42;16.67;;;-0.80;99.90;;;;;;4905808;29;20048;-65
2023/12/02 01:46:15;;;;;;;37.88;15.65;;;-0.70;99.90;;;;;;4902989;29;20047;-64
2023/12/02 01:48:41;;;;;;;38.88;15.85;;;-0.80;99.90;;;;;;4904295;29;20056;-66
2023/12/02 01:51:07;;;;;;;34.15;15.05;;;-0.80;99.90;;;;;;4911408;29;20150;-66
2023/12/02 01:53:32;;;;;;;36.60;15.65;;;-0.80;99.90;;;;;;4908773;29;20044;-66
2023/12/02 01:55:58;;;;;;;35.30;15.00;;;-0.80;99.90;;;;;;4911292;29;20058;-64
2023/12/02 01:58:24;;;;;;;33.80;14.75;;;-0.80;99.90;;;;;;4902885;29;20048;-64
2023/12/02 02:00:49;;;;;;;40.00;16.35;;;-0.80;99.90;;;;;;4899056;29;20410;-65
2023/12/02 02:03:15;;;;;;;38.95;16.23;;;-0.80;99.90;;;;;;4911333;29;20092;-66
2023/12/02 02:05:43;;;;;;;34.80;15.45;;;-0.80;99.90;;;;;;4912156;29;20044;-66
2023/12/02 02:08:08;;;;;;;41.35;16.42;;;-0.70;99.90;;;;;;4911745;29;20126;-66
2023/12/02 02:10:34;;;;;;;32.40;14.63;;;-0.70;99.90;;;;;;4909319;29;20147;-65
2023/12/02 02:12:59;;;;;;;32.90;14.63;;;-0.80;99.90;;;;;;4911573;29;20044;-66
2023/12/02 02:15:25;;;;;;;31.02;14.02;;;-0.80;99.90;;;;;;4912214;29;20044;-66
2023/12/02 02:17:51;;;;;;;35.90;15.95;;;-0.70;99.90;;;;;;4908382;29;20047;-66
2023/12/02 02:20:16;;;;;;;35.70;14.50;;;-0.70;99.90;;;;;;4910820;29;20048;-66
2023/12/02 02:22:42;;;;;;;34.45;14.80;;;-0.70;99.90;;;;;;4911584;29;20507;-66
2023/12/02 02:25:07;;;;;;;37.83;15.40;;;-0.70;99.90;;;;;;4909092;29;20463;-66
2023/12/02 02:27:33;;;;;;;36.90;15.95;;;-0.80;99.90;;;;;;4911639;29;20129;-66
2023/12/02 02:29:58;;;;;;;38.55;15.70;;;-0.70;99.90;;;;;;4906178;29;20044;-65
2023/12/02 02:32:24;;;;;;;35.85;15.43;;;-0.70;99.90;;;;;;4907444;29;20051;-67
2023/12/02 02:34:49;;;;;;;36.58;15.10;;;-0.70;99.90;;;;;;4910678;29;21246;-66
2023/12/02 02:37:15;;;;;;;34.35;14.98;;;-0.70;99.90;;;;;;4914624;29;20439;-66
2023/12/02 02:39:41;;;;;;;36.35;15.07;;;-0.80;99.90;;;;;;4915846;29;20052;-66
2023/12/02 02:42:06;;;;;;;31.80;15.02;;;-0.80;99.90;;;;;;4911843;29;20062;-66
2023/12/02 02:44:33;;;;;;;37.10;15.98;;;-0.80;99.90;;;;;;4914431;29;20071;-66
2023/12/02 02:46:58;;;;;;;35.80;15.60;;;-0.80;99.90;;;;;;4915348;29;20048;-66
2023/12/02 02:49:24;;;;;;;36.45;15.00;;;-0.80;99.90;;;;;;4912242;29;20055;-66
2023/12/02 02:51:49;;;;;;;33.13;14.85;;;-0.80;99.90;;;;;;4914487;29;20594;-66
2023/12/02 02:54:15;;;;;;;37.13;15.70;;;-0.80;99.90;;;;;;4905696;29;20052;-65
2023/12/02 02:56:43;;;;;;;36.63;14.90;;;-0.90;99.90;;;;;;4915060;29;20090;-65
2023/12/02 02:59:09;;;;;;;36.70;15.52;;;-0.90;99.90;;;;;;4911907;29;20183;-65
2023/12/02 03:01:36;;;;;;;33.55;15.32;;;-0.90;99.90;;;;;;4915281;29;20470;-66
2023/12/02 03:04:01;;;;;;;36.88;15.50;;;-0.90;99.90;;;;;;4913973;29;20040;-65
2023/12/02 03:06:27;;;;;;;38.58;16.25;;;-0.90;99.90;;;;;;4912443;29;20600;-66
2023/12/02 03:08:52;;;;;;;31.92;15.45;;;-0.90;99.90;;;;;;4913748;29;20419;-66
2023/12/02 03:11:19;;;;;;;38.72;15.57;;;-0.90;99.90;;;;;;4898318;29;20048;-66
2023/12/02 03:13:44;;;;;;;39.20;16.23;;;-0.90;99.90;;;;;;4913117;29;20044;-65
2023/12/02 03:16:10;;;;;;;36.25;16.00;;;-0.90;99.90;;;;;;4913279;29;20415;-66
2023/12/02 03:18:35;;;;;;;38.03;15.50;;;-0.90;99.90;;;;;;4914115;29;20608;-65
2023/12/02 03:21:01;;;;;;;34.60;15.55;;;-0.90;99.90;;;;;;4896810;29;20048;-66
2023/12/02 03:23:26;;;;;;;37.63;16.20;;;-0.80;99.90;;;;;;4908836;29;20062;-67
2023/12/02 03:25:52;;;;;;;36.60;16.27;;;-0.90;99.90;;;;;;4902713;29;20036;-66
2023/12/02 03:28:19;;;;;;;40.90;16.85;;;-0.80;99.90;;;;;;4915198;29;20075;-66
2023/12/02 03:30:45;;;;;;;36.53;15.95;;;-0.80;99.90;;;;;;4914924;29;20106;-65
2023/12/02 03:33:10;;;;;;;38.67;16.38;;;-0.80;99.90;;;;;;4910955;29;20039;-66
2023/12/02 03:35:36;;;;;;;35.70;16.80;;;-0.70;99.90;;;;;;4914155;29;20036;-66
2023/12/02 03:38:01;;;;;;;37.83;16.08;;;-0.70;99.90;;;;;;4914474;29;20166;-66
2023/12/02 03:40:27;;;;;;;38.40;17.13;;;-0.80;99.90;;;;;;4911538;29;20085;-65
2023/12/02 03:42:53;;;;;;;39.40;16.70;;;-0.70;99.90;;;;;;4913552;29;20154;-65
2023/12/02 03:45:19;;;;;;;37.05;16.90;;;-0.70;99.90;;;;;;4914512;29;20103;-65
2023/12/02 03:47:44;;;;;;;34.55;16.00;;;-0.70;99.90;;;;;;4912904;29;20040;-65
2023/12/02 03:50:10;;;;;;;39.55;16.23;;;-0.70;99.90;;;;;;4911362;29;20104;-66
2023/12/02 03:52:36;;;;;;;39.45;16.20;;;-0.70;99.90;;;;;;4913854;29;20075;-66
2023/12/02 03:55:02;;;;;;;35.85;15.15;;;-0.70;99.90;;;;;;4914289;29;20036;-66
2023/12/02 03:57:27;;;;;;;37.67;16.83;;;-0.70;99.90;;;;;;4911266;29;20183;-65
2023/12/02 03:59:53;;;;;;;41.63;17.65;;;-0.70;99.90;;;;;;4913840;29;20040;-66
2023/12/02 04:02:18;;;;;;;35.58;16.58;;;-0.70;99.90;;;;;;4914186;29;20051;-66
2023/12/02 04:04:44;;;;;;;38.53;17.80;;;-0.70;99.90;;;;;;4913260;29;20487;-66
2023/12/02 04:07:09;;;;;;;42.97;16.75;;;-0.60;99.90;;;;;;4900133;29;20050;-66
2023/12/02 04:09:35;;;;;;;37.60;16.17;;;-0.70;99.90;;;;;;4904820;29;20644;-65
2023/12/02 04:12:00;;;;;;;38.95;16.88;;;-0.60;99.90;;;;;;4914532;29;20055;-66
2023/12/02 04:14:26;;;;;;;38.53;15.85;;;-0.60;99.90;;;;;;4910556;29;20063;-65
2023/12/02 04:16:52;;;;;;;36.22;16.65;;;-0.70;99.90;;;;;;4913563;29;20040;-65
2023/12/02 04:19:17;;;;;;;39.58;17.48;;;-0.60;99.90;;;;;;4913529;29;20474;-65
2023/12/02 04:21:44;;;;;;;38.17;15.70;;;-0.60;99.90;;;;;;4910994;29;20059;-66
2023/12/02 04:24:10;;;;;;;38.10;16.50;;;-0.70;99.90;;;;;;4913010;29;20055;-65
2023/12/02 04:26:36;;;;;;;45.17;17.17;;;-0.70;99.90;;;;;;4884339;29;20053;-65
2023/12/02 04:29:02;;;;;;;37.08;16.17;;;-0.60;99.90;;;;;;4895017;29;20040;-66
2023/12/02 04:31:28;;;;;;;39.20;17.05;;;-0.60;99.90;;;;;;4908666;29;20655;-65
2023/12/02 04:33:54;;;;;;;43.85;17.60;;;-0.60;99.90;;;;;;4912736;29;20087;-66
2023/12/02 04:36:19;;;;;;;41.42;16.83;;;-0.60;99.90;;;;;;4898409;29;20087;-65
2023/12/02 04:38:45;;;;;;;42.28;17.77;;;-0.60;99.90;;;;;;4910341;29;20040;-65
2023/12/02 04:41:11;;;;;;;43.38;17.52;;;-0.60;99.90;;;;;;4912778;29;20087;-65
2023/12/02 04:43:36;;;;;;;39.78;17.05;;;-0.60;99.90;;;;;;4912723;29;20652;-65
2023/12/02 04:46:02;;;;;;;40.20;15.93;;;-0.60;99.90;;;;;;4910736;29;20036;-66
2023/12/02 04:48:27;;;;;;;42.13;16.95;;;-0.60;99.90;;;;;;4912244;29;20116;-66
2023/12/02 04:50:53;;;;;;;43.22;18.35;;;-0.60;99.90;;;;;;4903703;29;20048;-65
2023/12/02 04:53:19;;;;;;;43.60;18.05;;;-0.60;99.90;;;;;;4913407;29;20051;-66
2023/12/02 04:55:46;;;;;;;44.50;18.13;;;-0.60;99.90;;;;;;4909521;29;20423;-65
2023/12/02 04:58:11;;;;;;;41.97;17.20;;;-0.70;99.90;;;;;;4911963;29;20043;-66
2023/12/02 05:00:37;;;;;;;43.50;17.98;;;-0.60;99.90;;;;;;4913443;29;20044;-65
2023/12/02 05:03:03;;;;;;;42.22;18.35;;;-0.60;99.90;;;;;;4907049;29;20051;-65
2023/12/02 05:05:29;;;;;;;43.88;18.23;;;-0.70;99.90;;;;;;4912011;29;20040;-65
2023/12/02 05:07:54;;;;;;;44.30;17.73;;;-0.70;99.90;;;;;;4912097;29;20040;-65
2023/12/02 05:10:20;;;;;;;42.30;17.80;;;-0.70;99.90;;;;;;4913194;29;20044;-66
2023/12/02 05:12:45;;;;;;;38.53;16.15;;;-0.70;99.90;;;;;;4910360;29;20042;-65
2023/12/02 05:15:11;;;;;;;40.55;17.40;;;-0.70;99.90;;;;;;4912166;29;20028;-66
2023/12/02 05:17:37;;;;;;;36.53;16.35;;;-0.60;99.90;;;;;;4912395;29;20047;-67
2023/12/02 05:20:03;;;;;;;40.78;17.52;;;-0.70;99.90;;;;;;4909011;29;20111;-66
2023/12/02 05:22:28;;;;;;;38.38;16.73;;;-0.60;99.90;;;;;;4911792;29;20071;-66
2023/12/02 05:24:54;;;;;;;36.05;14.93;;;-0.60;99.90;;;;;;4912218;29;20420;-66
2023/12/02 05:27:19;;;;;;;40.25;16.50;;;-0.60;99.90;;;;;;4911785;29;20048;-65
2023/12/02 05:29:45;;;;;;;42.92;17.27;;;-0.60;99.90;;;;;;4909013;29;20498;-65
2023/12/02 05:32:11;;;;;;;39.70;16.42;;;-0.60;99.90;;;;;;4910861;29;20044;-66
2023/12/02 05:34:36;;;;;;;37.72;16.77;;;-0.60;99.90;;;;;;4911639;29;20040;-65
2023/12/02 05:37:02;;;;;;;41.65;17.00;;;-0.60;99.90;;;;;;4908680;29;20555;-66
2023/12/02 05:39:28;;;;;;;41.17;17.50;;;-0.50;99.90;;;;;;4911037;29;20526;-66
2023/12/02 05:41:54;;;;;;;41.13;17.33;;;-0.50;99.90;;;;;;4894422;29;20067;-66
2023/12/02 05:44:19;;;;;;;41.40;16.35;;;-0.50;99.90;;;;;;4908872;29;21690;-65
2023/12/02 05:46:45;;;;;;;41.17;17.25;;;-0.50;99.90;;;;;;4910654;29;20140;-66
2023/12/02 05:49:11;;;;;;;39.67;16.13;;;-0.50;99.90;;;;;;4910859;29;20492;-65
2023/12/02 05:51:38;;;;;;;42.65;17.65;;;-0.50;99.90;;;;;;4894722;29;20072;-66
2023/12/02 05:54:06;;;;;;;45.25;18.00;;;-0.50;99.90;;;;;;4905913;29;20051;-66
2023/12/02 05:56:32;;;;;;;40.67;17.20;;;-0.50;99.90;;;;;;4910478;29;20082;-66
2023/12/02 05:58:57;;;;;;;42.88;17.48;;;-0.50;99.90;;;;;;4908115;29;20758;-66
2023/12/02 06:01:23;;;;;;;41.47;17.92;;;-0.50;99.90;;;;;;4907960;29;20488;-66
2023/12/02 06:03:49;;;;;;;37.95;15.55;;;-0.50;99.90;;;;;;4910308;29;20523;-65
2023/12/02 06:06:15;;;;;;;36.90;15.48;;;-0.50;99.90;;;;;;4903933;29;20048;-64
2023/12/02 06:08:40;;;;;;;40.28;17.02;;;-0.50;99.90;;;;;;4905750;29;20043;-65
2023/12/02 06:11:06;;;;;;;42.65;17.25;;;-0.50;99.90;;;;;;4907972;29;20036;-65
2023/12/02 06:13:32;;;;;;;40.97;16.77;;;-0.50;99.90;;;;;;4878390;29;20064;-66
2023/12/02 06:15:57;;;;;;;37.35;16.63;;;-0.50;99.90;;;;;;4911341;29;20044;-66
2023/12/02 06:18:23;;;;;;;41.45;17.50;;;-0.40;99.90;;;;;;4910819;29;20048;-65
2023/12/02 06:20:49;;;;;;;41.65;16.33;;;-0.50;99.90;;;;;;4891222;29;20052;-66
2023/12/02 06:23:14;;;;;;;41.10;17.10;;;-0.50;99.90;;;;;;4893165;29;20052;-66
2023/12/02 06:25:40;;;;;;;41.42;16.88;;;-0.50;99.90;;;;;;4908756;29;20087;-64
2023/12/02 06:30:34;;;;;;;37.60;16.23;;;-0.50;99.90;;;;;;4909792;29;20455;-71
2023/12/02 06:32:59;;;;;;;42.60;17.63;;;-0.50;99.90;;;;;;4895718;29;20076;-72
2023/12/02 06:40:35;;;;;;;40.40;17.48;;;-0.50;99.90;;;;;;5911576;23;20091;-72
2023/12/02 06:43:01;;;;;;;37.58;16.08;;;-0.50;99.90;;;;;;4921290;29;20050;-72
2023/12/02 06:45:27;;;;;;;45.30;17.58;;;-0.50;99.90;;;;;;4893571;29;20050;-73
2023/12/02 06:47:54;;;;;;;42.63;17.58;;;-0.50;99.90;;;;;;4905467;29;20043;-73
2023/12/02 07:05:52;;;;;;;40.97;16.45;;;-0.60;99.90;;;;;;5041206;23;20063;-66
2023/12/02 07:08:17;;;;;;;38.25;15.93;;;-0.50;99.90;;;;;;4932963;29;20437;-65
2023/12/02 07:10:43;;;;;;;36.60;15.25;;;-0.60;99.90;;;;;;4927641;29;20383;-67
2023/12/02 07:13:08;;;;;;;39.63;16.67;;;-0.50;99.90;;;;;;4922979;29;20512;-69
2023/12/02 07:15:34;;;;;;;38.90;16.05;;;-0.60;99.90;;;;;;4932613;29;20067;-65
2023/12/02 07:17:59;;;;;;;38.88;16.75;;;-0.40;99.90;;;;;;4894813;29;20095;-66
2023/12/02 07:20:25;;;;;;;38.05;15.88;;;-0.60;99.90;;;;;;4912978;29;20036;-67
2023/12/02 07:22:51;;;;;;;38.53;15.70;;;-0.60;99.90;;;;;;4914877;29;20052;-67
2023/12/02 07:25:17;;;;;;;41.60;17.27;;;-0.60;99.90;;;;;;4913390;29;20043;-63
2023/12/02 07:27:43;;;;;;;38.95;16.48;;;-0.60;99.90;;;;;;4903502;29;20051;-67
2023/12/02 07:30:09;;;;;;;39.97;16.33;;;-0.50;99.90;;;;;;4916485;29;20397;-67
2023/12/02 07:32:35;;;;;;;37.38;16.23;;;-0.50;99.90;;;;;;4914387;29;20036;-64
2023/12/02 07:35:00;;;;;;;40.95;17.90;;;-0.50;99.90;;;;;;4907193;29;20063;-65
2023/12/02 07:37:26;;;;;;;36.63;16.65;;;-0.50;99.90;;;;;;4914193;29;20052;-65
2023/12/02 07:39:51;;;;;;;38.40;15.80;;;-0.50;99.90;;;;;;4917140;29;20040;-64
2023/12/02 07:42:17;;;;;;;42.53;17.55;;;-0.50;99.90;;;;;;4892361;29;20041;-64
2023/12/02 07:44:42;;;;;;;43.30;17.10;;;-0.50;99.90;;;;;;4924139;29;20163;-66
2023/12/02 07:47:08;;;;;;;38.50;16.90;;;-0.50;99.90;;;;;;4917072;29;20380;-67
2023/12/02 07:49:33;;;;;;;47.38;17.27;;;-0.50;99.90;;;;;;4909922;29;20751;-67
2023/12/02 07:51:59;;;;;;;40.78;17.65;;;-0.50;99.90;;;;;;4888634;29;20040;-67
2023/12/02 07:54:24;;;;;;;40.42;17.33;;;-0.50;99.90;;;;;;4916075;29;20028;-66
2023/12/02 07:56:50;;;;;;;42.80;17.38;;;-0.50;99.90;;;;;;4916797;29;20055;-65
2023/12/02 07:59:15;;;;;;;47.83;18.00;;;-0.40;99.90;;;;;;4910987;29;20039;-65
2023/12/02 08:01:41;;;;;;;42.00;17.02;;;-0.40;99.90;;;;;;4908513;29;20514;-68
2023/12/02 08:04:06;;;;;;;44.05;17.98;;;-0.40;99.90;;;;;;4915790;29;20036;-66
2023/12/02 08:06:32;;;;;;;47.83;18.15;;;-0.30;99.90;;;;;;4907609;29;20044;-66
2023/12/02 08:08:57;;;;;;;39.42;17.55;;;-0.40;99.90;;;;;;4912228;29;20051;-67
2023/12/02 08:11:23;;;;;;;44.28;18.55;;;-0.30;99.90;;;;;;4916066;29;20040;-67
2023/12/02 08:13:49;;;;;;;39.42;15.63;;;-0.30;99.90;;;;;;4910694;29;20029;-67
2023/12/02 08:16:14;;;;;;;45.22;18.13;;;-0.30;99.90;;;;;;4913642;29;20487;-67
2023/12/02 08:18:40;;;;;;;43.22;18.35;;;-0.30;99.90;;;;;;4911405;29;20124;-65
2023/12/02 08:21:06;;;;;;;42.95;16.98;;;-0.30;99.90;;;;;;4903854;29;20040;-66
2023/12/02 08:23:31;;;;;;;46.30;18.70;;;-0.30;99.90;;;;;;4906854;29;20039;-66
2023/12/02 08:25:57;;;;;;;39.53;16.77;;;-0.20;99.90;;;;;;4894777;29;20075;-67
2023/12/02 08:28:22;;;;;;;43.35;18.35;;;-0.20;99.90;;;;;;4913820;29;20044;-66
2023/12/02 08:30:48;;;;;;;44.65;18.50;;;-0.10;99.90;;;;;;4914780;29;20096;-67
2023/12/02 08:33:13;;;;;;;45.28;17.92;;;-0.20;99.90;;;;;;4908460;29;20114;-65
2023/12/02 08:35:39;;;;;;;43.90;17.67;;;-0.20;99.90;;;;;;4913781;29;20044;-66
2023/12/02 08:38:04;;;;;;;43.67;17.83;;;-0.20;99.90;;;;;;4909934;29;20116;-67
2023/12/02 08:40:30;;;;;;;42.85;16.95;;;-0.10;99.90;;;;;;4891391;29;20052;-66
2023/12/02 08:42:55;;;;;;;45.17;19.33;;;-0.10;99.90;;;;;;4913967;29;20036;-67
2023/12/02 08:45:21;;;;;;;44.50;18.90;;;-0.10;99.90;;;;;;4914230;29;20036;-67
2023/12/02 08:47:46;;;;;;;46.17;19.25;;;0.00;99.90;;;;;;4898298;29;20127;-66
2023/12/02 08:50:12;;;;;;;43.17;18.10;;;-0.10;99.90;;;;;;4908056;29;20032;-66
2023/12/02 08:52:37;;;;;;;48.08;18.95;;;0.00;99.90;;;;;;4907039;29;20490;-66
2023/12/02 08:55:03;;;;;;;39.88;17.83;;;0.00;99.90;;;;;;4915305;29;20495;-65
2023/12/02 08:57:29;;;;;;;44.90;18.75;;;0.00;99.90;;;;;;4906440;29;20498;-65
2023/12/02 08:59:54;;;;;;;44.33;18.70;;;0.10;99.90;;;;;;4910663;29;20040;-62
2023/12/02 09:02:20;;;;;;;45.10;19.08;;;0.00;99.90;;;;;;4915220;29;20040;-65
2023/12/02 09:04:46;;;;;;;45.70;18.80;;;0.10;99.90;;;;;;4900360;29;20205;-67
2023/12/02 09:07:12;;;;;;;42.75;18.60;;;0.10;99.90;;;;;;4890898;29;20541;-65
2023/12/02 09:09:37;;;;;;;43.55;18.80;;;0.10;99.90;;;;;;4913493;29;20040;-65
2023/12/02 09:12:03;;;;;;;48.90;19.23;;;0.10;99.90;;;;;;4910398;29;20040;-66
2023/12/02 09:14:28;;;;;;;41.63;17.85;;;0.10;99.90;;;;;;4886463;29;20142;-65
2023/12/02 09:16:54;;;;;;;42.58;18.48;;;0.10;99.90;;;;;;4902179;29;20173;-65
2023/12/02 09:19:28;;;;;;;42.38;18.17;;;0.10;99.90;;;;;;4914315;29;20568;-63
2023/12/02 09:21:54;;;;;;;48.25;20.00;;;0.00;99.90;;;;;;4914128;29;20036;-65
2023/12/02 09:24:38;;;;;;;44.17;18.02;;;0.10;99.90;;;;;;4905736;29;20526;-66
2023/12/02 09:27:08;;;;;;;46.55;19.27;;;0.10;99.90;;;;;;4907532;29;20043;-67
2023/12/02 09:29:40;;;;;;;42.38;18.63;;;0.10;99.90;;;;;;4908612;29;20084;-68
2023/12/02 09:32:27;;;;;;;42.72;18.00;;;0.10;99.90;;;;;;4897957;29;20040;-66
2023/12/02 09:34:58;;;;;;;48.63;18.75;;;0.00;99.90;;;;;;4913346;29;20055;-67
2023/12/02 09:37:56;;;;;;;40.17;17.25;;;0.10;99.90;;;;;;4910144;29;20188;-69
2023/12/02 09:40:21;;;;;;;40.00;17.55;;;0.00;99.90;;;;;;4913038;29;20036;-66
2023/12/02 09:43:11;;;;;;;42.08;18.10;;;0.00;99.90;;;;;;4907492;29;20542;-66
2023/12/02 09:45:48;;;;;;;47.50;19.00;;;0.00;99.90;;;;;;4904089;29;20118;-66
2023/12/02 09:48:19;;;;;;;43.63;18.73;;;0.00;99.90;;;;;;4902350;29;20070;-66
2023/12/02 09:51:10;;;;;;;48.28;18.60;;;0.00;99.90;;;;;;4900489;29;20039;-67
2023/12/02 09:54:18;;;;;;;43.90;18.75;;;0.00;99.90;;;;;;4912622;29;20048;-66
2023/12/02 09:56:54;;;;;;;46.40;17.75;;;0.00;99.90;;;;;;4894038;29;20175;-66
2023/12/02 10:00:12;;;;;;;43.20;18.98;;;0.00;99.90;;;;;;4908659;29;20644;-65
2023/12/02 10:03:07;;;;;;;44.05;18.25;;;0.10;99.90;;;;;;4881886;29;20056;-66
2023/12/02 10:05:48;;;;;;;44.67;19.15;;;0.20;99.90;;;;;;4906958;29;20040;-66
2023/12/02 10:08:36;;;;;;;45.35;18.90;;;0.20;99.90;;;;;;4914081;29;20138;-67
2023/12/02 10:11:11;;;;;;;42.72;18.50;;;0.30;99.90;;;;;;4914597;29;20040;-67
2023/12/02 10:13:48;;;;;;;48.80;19.67;;;0.30;99.90;;;;;;4903711;29;20040;-66
2023/12/02 10:16:18;;;;;;;49.47;18.55;;;0.40;99.90;;;;;;4904726;29;20040;-67
2023/12/02 10:18:49;;;;;;;46.88;18.75;;;0.40;99.90;;;;;;4908930;29;20039;-66
2023/12/02 10:21:16;;;;;;;;;;;0.50;99.90;;;;;;4897729;29;20040;-67
2023/12/02 10:23:54;;;;;;;45.08;18.98;;;0.50;99.90;;;;;;4893717;29;19923;-68
2023/12/02 10:26:24;;;;;;;47.35;19.80;;;0.50;99.90;;;;;;4902858;29;20119;-66
2023/12/02 10:29:12;;;;;;;47.28;19.50;;;0.60;99.90;;;;;;4899294;29;20127;-67
2023/12/02 10:31:49;;;;;;;44.58;19.65;;;0.60;99.90;;;;;;4889036;29;20495;-66
2023/12/02 10:34:23;;;;;;;49.08;20.00;;;0.60;99.90;;;;;;4904088;29;20040;-68
2023/12/02 10:36:52;;;;;;;47.42;19.45;;;0.70;99.90;;;;;;4898201;29;20467;-66
2023/12/02 10:39:43;;;;;;;49.25;20.15;;;0.70;99.90;;;;;;4909923;29;20487;-67
2023/12/02 10:42:16;;;;;;;49.20;20.80;;;0.80;99.90;;;;;;4914471;29;20131;-70
2023/12/02 10:44:43;;;;;;;47.72;20.08;;;0.70;99.90;;;;;;4913971;29;20075;-67
2023/12/02 10:47:10;;;;;;;47.90;20.15;;;0.80;99.90;;;;;;4895245;29;20123;-65
2023/12/02 10:49:37;;;;;;;59.58;22.20;;;0.80;99.90;;;;;;4909756;29;20037;-67
2023/12/02 10:52:06;;;;;;;47.25;20.58;;;0.90;99.90;;;;;;4912187;29;20044;-69
2023/12/02 10:54:34;;;;;;;44.70;20.85;;;0.90;99.90;;;;;;4895617;29;20032;-67
2023/12/02 10:57:08;;;;;;;50.83;20.27;;;0.90;99.90;;;;;;4908453;29;20079;-68
2023/12/02 10:59:49;;;;;;;45.97;19.48;;;1.00;99.90;;;;;;4900453;29;20044;-65
2023/12/02 11:02:31;;;;;;;;;;;1.00;99.90;;;;;;4918069;29;20418;-64
2023/12/02 11:05:23;;;;;;;45.53;18.15;;;1.00;99.90;;;;;;4910763;29;20267;-66
2023/12/02 11:07:55;;;;;;;45.92;18.92;;;1.00;99.90;;;;;;4909147;29;20040;-66
2023/12/02 11:10:31;;;;;;;47.30;19.45;;;1.00;99.90;;;;;;4906025;29;20600;-66
2023/12/02 11:13:01;;;;;;;44.80;20.27;;;1.10;99.90;;;;;;4912036;29;20479;-66
2023/12/02 11:15:28;;;;;;;48.53;20.52;;;1.10;99.90;;;;;;4903606;29;20044;-66
2023/12/02 11:18:03;;;;;;;47.78;20.73;;;1.20;99.90;;;;;;4913096;29;20079;-68
2023/12/02 11:20:52;;;;;;;51.35;21.35;;;1.20;99.90;;;;;;4913811;29;20767;-68
2023/12/02 11:23:26;;;;;;;47.42;20.75;;;1.20;99.90;;;;;;4908919;29;20047;-68
2023/12/02 11:26:47;;;;;;;46.60;19.73;;;1.20;99.90;;;;;;4908321;29;20599;-67
2023/12/02 11:29:43;;;;;;;50.92;20.60;;;1.30;99.90;;;;;;4846238;29;20134;-66
2023/12/02 11:32:31;;;;;;;51.50;19.92;;;1.40;99.90;;;;;;4827438;29;20401;-71
2023/12/02 11:35:18;;;;;;;46.75;20.15;;;1.50;99.90;;;;;;4882436;29;20048;-69
2023/12/02 11:37:58;;;;;;;49.63;20.73;;;1.60;99.90;;;;;;4897964;29;20499;-69
2023/12/02 11:40:42;;;;;;;50.45;21.25;;;1.70;99.90;;;;;;4890338;29;20506;-68
2023/12/02 11:43:21;;;;;;;45.47;18.50;;;1.70;99.90;;;;;;4896412;29;20504;-68
2023/12/02 11:46:14;;;;;;;43.28;18.33;;;1.60;99.90;;;;;;4900393;29;20132;-69
2023/12/02 11:49:13;;;;;;;43.75;18.23;;;1.50;99.90;;;;;;4912224;29;20056;-69
2023/12/02 11:51:59;;;;;;;45.15;19.20;;;1.50;99.90;;;;;;4906832;29;20039;-70
2023/12/02 11:54:57;;;;;;;43.95;19.30;;;1.70;99.90;;;;;;4902733;29;20040;-69
2023/12/02 11:57:22;;;;;;;46.03;19.73;;;1.90;99.90;;;;;;4903384;29;20040;-69
2023/12/02 12:00:03;;;;;;;51.15;19.98;;;2.00;99.90;;;;;;4909836;29;20032;-68
2023/12/02 12:02:47;;;;;;;45.90;19.08;;;2.10;99.90;;;;;;4893046;29;20048;-70
2023/12/02 12:05:37;;;;;;;46.67;18.90;;;2.10;99.90;;;;;;4906760;29;20048;-67
2023/12/02 12:08:10;;;;;;;49.75;21.08;;;2.10;99.90;;;;;;4893508;29;20048;-68
2023/12/02 12:10:40;;;;;;;46.28;19.63;;;2.10;99.90;;;;;;4905480;29;20041;-68
2023/12/02 12:13:09;;;;;;;51.13;21.10;;;2.10;99.90;;;;;;4900221;29;20452;-70
2023/12/02 12:15:36;;;;;;;49.83;20.98;;;2.00;99.90;;;;;;4910087;29;20040;-69
2023/12/02 12:18:02;;;;;;;48.45;20.20;;;2.00;99.90;;;;;;4902781;29;20042;-71
2023/12/02 12:20:29;;;;;;;51.13;20.88;;;2.00;99.90;;;;;;4896429;29;20048;-74
2023/12/02 12:22:55;;;;;;;47.25;20.05;;;2.00;99.90;;;;;;4898188;29;20040;-70
2023/12/02 12:25:22;;;;;;;46.58;19.50;;;2.00;99.90;;;;;;4901066;29;20051;-71
2023/12/02 12:27:48;;;;;;;52.15;21.52;;;2.00;99.90;;;;;;4916973;29;20096;-71
2023/12/02 12:30:14;;;;;;;46.33;19.63;;;2.00;99.90;;;;;;4895546;29;20121;-69
2023/12/02 12:32:40;;;;;;;44.22;18.95;;;2.00;99.90;;;;;;4885989;29;20048;-71
2023/12/02 12:35:16;;;;;;;49.25;20.20;;;2.00;99.90;;;;;;4906060;29;20028;-72
2023/12/02 12:37:44;;;;;;;44.60;18.73;;;2.00;99.90;;;;;;4901970;29;20044;-69
2023/12/02 12:40:11;;;;;;;48.17;19.08;;;2.00;99.90;;;;;;4917300;29;20044;-72
2023/12/02 12:42:48;;;;;;;47.92;20.13;;;2.00;99.90;;;;;;4896363;29;20511;-70
2023/12/02 12:45:14;;;;;;;48.88;20.02;;;2.00;99.90;;;;;;4908227;29;20059;-72
2023/12/02 12:47:43;;;;;;;47.92;19.38;;;2.00;99.90;;;;;;4898936;29;20428;-70
2023/12/02 12:50:14;;;;;;;44.75;19.25;;;2.00;99.90;;;;;;4879368;29;20045;-68
2023/12/02 12:52:52;;;;;;;50.03;20.13;;;2.00;99.90;;;;;;4898867;29;20124;-67
2023/12/02 12:55:23;;;;;;;48.72;19.52;;;2.00;99.90;;;;;;4911902;29;20071;-68
2023/12/02 12:58:04;;;;;;;49.75;20.05;;;1.90;99.90;;;;;;4911820;29;20044;-76
2023/12/02 13:00:35;;;;;;;;;;;2.00;99.90;;;;;;4892819;29;20043;-70
2023/12/02 13:03:37;;;;;;;48.35;19.42;;;2.00;99.90;;;;;;4908547;29;19925;-70